Timaru Star — VRAA7 — position and weather

sailwx.info

Track history (hours):
 
Tides and Currents Weather Stations Pressure Air Temp Water Temp Dewpoint Dewpoint Depression Visibility Wind Speed Wind Dir Waves Ship Positions

Timaru Star

Last reported at 2017-Nov-07 13:18 UTC. Time now 2017-Nov-18 01:12 UTC.
Position N 46°12' W 125°32'.
Warning: this ship's position is 10 days out of date.

Length 175 m; draft 6.2 m.

Type: Cargo ship. MMSI: 367002208.

Date/timePositionNaut miles runAvg speedWind from/ knotsBaromVisibWave heightAir tempDewpointWater temp
2017-Nov-07 13:18N 46°12' W 125°32'412.3
2017-Nov-07 13:00N 46°12' W 125°27'612.4
2017-Nov-07 12:30N 46°12' W 125°18'612.4
2017-Nov-07 12:00N 46°12' W 125°09'712.4
2017-Nov-07 11:28N 46°12' W 124°59'612.5
2017-Nov-07 11:00N 46°12' W 124°51'612.6
2017-Nov-07 10:30N 46°12' W 124°42'812.9
2017-Nov-07 09:54N 46°12' W 124°31'513.0
2017-Nov-07 09:30N 46°12' W 124°24'612.5
2017-Nov-07 09:00N 46°12' W 124°15'510.9
2017-Nov-07 08:30N 46°14' W 124°07'4 8.1
2017-Nov-07 08:00N 46°15' W 124°01'5 9.4
2017-Nov-07 07:30N 46°12' W 123°56'4 9.0
2017-Nov-07 07:00N 46°12' W 123°50'5 9.6
2017-Nov-07 06:30N 46°14' W 123°44'612.5
2017-Nov-07 06:00N 46°15' W 123°35'611.8
2017-Nov-07 05:30N 46°15' W 123°26'612.0
2017-Nov-07 05:00N 46°09' W 123°24'612.0
2017-Nov-07 04:30N 46°09' W 123°15'612.2
2017-Nov-07 04:00N 46°11' W 123°06'8 2.2
2017-Nov-07 00:26N 46°06' W 122°57'0 0.0
2017-Nov-06 23:56N 46°06' W 122°57'0 0.0
2017-Nov-06 23:29N 46°06' W 122°57'0 0.0
2017-Nov-06 22:56N 46°06' W 122°57'0 0.0
2017-Nov-06 22:29N 46°06' W 122°57'0 0.0
2017-Nov-06 21:59N 46°06' W 122°57'0 0.0
2017-Nov-06 21:29N 46°06' W 122°57'0 0.0
2017-Nov-06 20:59N 46°06' W 122°57'0 0.0
2017-Nov-06 20:14N 46°06' W 122°57'0 0.0
2017-Nov-06 02:21N 46°06' W 122°57'0 0.0
2017-Nov-06 02:00N 46°06' W 122°57'0 0.0
2017-Nov-06 01:29N 46°06' W 122°57'0 0.0
2017-Nov-06 00:59N 46°06' W 122°57'0 0.0
2017-Nov-06 00:24N 46°06' W 122°57'0 0.0
2017-Nov-05 23:57N 46°06' W 122°57'0 0.2
2017-Nov-05 23:30N 46°06' W 122°57'0 1.0
2017-Nov-05 23:01N 46°06' W 122°58'1 2.1
2017-Nov-05 22:28N 46°07' W 122°59'0 0.0
2017-Nov-05 21:58N 46°07' W 122°59'0 0.1
2017-Nov-05 21:25N 46°07' W 122°59'0 0.5
2017-Nov-05 20:58N 46°07' W 122°59'0 0.1
2017-Nov-05 20:16N 46°07' W 122°59'0 0.0
2017-Nov-05 19:58N 46°07' W 122°59'0 0.0
2017-Nov-05 19:28N 46°07' W 122°59'0 0.0
2017-Nov-05 18:58N 46°07' W 122°59'0 0.0
2017-Nov-05 18:28N 46°07' W 122°59'0 0.0
2017-Nov-05 17:55N 46°07' W 122°59'0 0.0
2017-Nov-05 17:28N 46°07' W 122°59'0 0.0
2017-Nov-05 16:58N 46°07' W 122°59'0 0.0
2017-Nov-05 16:28N 46°07' W 122°59'0 0.0
2017-Nov-05 15:58N 46°07' W 122°59'0 0.0
2017-Nov-05 15:25N 46°07' W 122°59'0 0.0
2017-Nov-05 14:49N 46°07' W 122°59'0 0.0
2017-Nov-05 14:28N 46°07' W 122°59'0 0.0
2017-Nov-05 13:55N 46°07' W 122°59'0 0.0
2017-Nov-05 13:28N 46°07' W 122°59'0 0.2
2017-Nov-05 12:40N 46°07' W 122°59'0 0.1
2017-Nov-05 12:28N 46°07' W 122°59'0 0.0
2017-Nov-05 11:46N 46°07' W 122°59'0 0.1
2017-Nov-05 11:28N 46°07' W 122°59'0 0.1
2017-Nov-05 10:55N 46°07' W 122°59'0 0.2
2017-Nov-05 10:22N 46°07' W 122°59'0 0.0
2017-Nov-05 09:58N 46°07' W 122°59'0 0.1
2017-Nov-05 09:28N 46°07' W 122°59'0 0.0
2017-Nov-05 08:58N 46°07' W 122°59'0 0.0
2017-Nov-05 08:28N 46°07' W 122°59'0 0.0
2017-Nov-05 07:58N 46°07' W 122°59'0 0.0
2017-Nov-05 06:34N 46°07' W 122°59'0 0.1
2017-Nov-05 06:28N 46°07' W 122°59'0 0.0
2017-Nov-05 05:58N 46°07' W 122°59'0 0.0
2017-Nov-05 05:25N 46°07' W 122°59'0 0.0
2017-Nov-05 04:58N 46°07' W 122°59'0 0.0
2017-Nov-05 04:28N 46°07' W 122°59'0 0.0
2017-Nov-05 03:55N 46°07' W 122°59'0 0.0
2017-Nov-05 03:28N 46°07' W 122°59'0 0.0
2017-Nov-05 02:58N 46°07' W 122°59'0 0.0
2017-Nov-05 02:28N 46°07' W 122°59'0 0.0
2017-Nov-05 01:55N 46°07' W 122°59'0 0.0
2017-Nov-05 01:25N 46°07' W 122°59'0 0.0
2017-Nov-05 00:58N 46°07' W 122°59'0 0.2
2017-Nov-05 00:25N 46°07' W 122°59'0 0.2
2017-Nov-04 23:58N 46°07' W 122°59'0 0.0
2017-Nov-04 23:22N 46°07' W 122°59'0 0.0
2017-Nov-04 22:55N 46°07' W 122°59'0 0.0
2017-Nov-04 22:28N 46°07' W 122°59'0 0.3
2017-Nov-04 21:58N 46°07' W 122°59'0 0.2
2017-Nov-04 21:19N 46°07' W 122°59'0 0.1
2017-Nov-04 20:58N 46°07' W 122°59'0 0.0
2017-Nov-04 20:28N 46°07' W 122°59'0 0.0
2017-Nov-04 19:58N 46°07' W 122°59'0 0.0
2017-Nov-04 19:19N 46°07' W 122°59'0 0.0
2017-Nov-04 18:55N 46°07' W 122°59'0 0.0
2017-Nov-04 18:10N 46°07' W 122°59'0 0.1
2017-Nov-04 17:58N 46°07' W 122°59'0 0.0
2017-Nov-04 17:16N 46°07' W 122°59'0 0.0
2017-Nov-04 16:58N 46°07' W 122°59'0 0.0
2017-Nov-04 16:22N 46°07' W 122°59'0 0.0
2017-Nov-04 15:58N 46°07' W 122°59'0 0.0
2017-Nov-04 15:25N 46°07' W 122°59'0 0.0
2017-Nov-04 14:58N 46°07' W 122°59'0 0.0
2017-Nov-04 14:28N 46°07' W 122°59'0 0.0
2017-Nov-04 13:58N 46°07' W 122°59'0 0.0
2017-Nov-04 13:28N 46°07' W 122°59'0 0.1
2017-Nov-04 12:58N 46°07' W 122°59'0 0.2
2017-Nov-04 12:28N 46°07' W 122°59'0 0.1
2017-Nov-04 11:55N 46°07' W 122°59'0 0.1
2017-Nov-04 11:25N 46°07' W 122°59'0 0.1
2017-Nov-04 10:55N 46°07' W 122°59'0 0.3
2017-Nov-04 10:25N 46°07' W 122°59'0 0.1
2017-Nov-04 09:49N 46°07' W 122°59'0 0.0
2017-Nov-04 09:25N 46°07' W 122°59'0 0.1
2017-Nov-04 08:58N 46°07' W 122°59'0 0.0
2017-Nov-04 08:25N 46°07' W 122°59'0 0.0
2017-Nov-04 07:58N 46°07' W 122°59'0 0.0
2017-Nov-04 07:28N 46°07' W 122°59'0 0.0
2017-Nov-04 06:58N 46°07' W 122°59'0 0.0
2017-Nov-04 06:28N 46°07' W 122°59'0 0.0
2017-Nov-04 05:58N 46°07' W 122°59'0 0.0
2017-Nov-04 05:28N 46°07' W 122°59'0 0.0
2017-Nov-04 04:52N 46°07' W 122°59'0 0.0
2017-Nov-04 04:25N 46°07' W 122°59'0 0.0
2017-Nov-04 03:58N 46°07' W 122°59'0 0.0
2017-Nov-04 03:10N 46°07' W 122°59'0 0.0
2017-Nov-04 02:49N 46°07' W 122°59'0 0.0
2017-Nov-04 02:28N 46°07' W 122°59'0 0.0
2017-Nov-04 01:49N 46°07' W 122°59'0 0.1
2017-Nov-04 01:28N 46°07' W 122°59'0 0.0
2017-Nov-04 00:58N 46°07' W 122°59'0 0.2
2017-Nov-04 00:13N 46°07' W 122°59'0 0.2
2017-Nov-03 23:52N 46°07' W 122°59'0 0.1
2017-Nov-03 23:19N 46°07' W 122°59'0 0.0
2017-Nov-03 22:58N 46°07' W 122°59'0 0.0
2017-Nov-03 22:25N 46°07' W 122°59'0 0.0
2017-Nov-03 21:52N 46°07' W 122°59'0 0.0
2017-Nov-03 21:28N 46°07' W 122°59'0 0.1
2017-Nov-03 20:58N 46°07' W 122°59'0 0.3
2017-Nov-03 20:28N 46°07' W 122°59'0 0.0
2017-Nov-03 19:58N 46°07' W 122°59'0 0.0
2017-Nov-03 19:22N 46°07' W 122°59'0 0.0
2017-Nov-03 18:46N 46°07' W 122°59'0 0.0
2017-Nov-03 18:19N 46°07' W 122°59'0 0.0
2017-Nov-03 17:43N 46°07' W 122°59'0 0.0
2017-Nov-03 17:04N 46°07' W 122°59'0 0.1
2017-Nov-03 16:58N 46°07' W 122°59'0 0.0
2017-Nov-03 16:28N 46°07' W 122°59'0 0.0
2017-Nov-03 15:58N 46°07' W 122°59'0 0.1
2017-Nov-03 15:19N 46°07' W 122°59'0 0.1
2017-Nov-03 14:58N 46°07' W 122°59'0 0.0
2017-Nov-03 14:28N 46°07' W 122°59'0 0.0
2017-Nov-03 13:58N 46°07' W 122°59'0 0.0
2017-Nov-03 13:25N 46°07' W 122°59'0 0.0
2017-Nov-03 12:55N 46°07' W 122°59'0 0.0
2017-Nov-03 12:25N 46°07' W 122°59'0 0.1
2017-Nov-03 11:58N 46°07' W 122°59'0 0.2
2017-Nov-03 11:28N 46°07' W 122°59'0 0.2
2017-Nov-03 10:58N 46°07' W 122°59'0 0.0
2017-Nov-03 10:25N 46°07' W 122°59'0 0.1
2017-Nov-03 09:55N 46°07' W 122°59'0 0.4
2017-Nov-03 09:25N 46°07' W 122°59'0 0.1
2017-Nov-03 08:55N 46°07' W 122°59'0 0.1
2017-Nov-03 08:28N 46°07' W 122°59'0 0.1
2017-Nov-03 07:58N 46°07' W 122°59'0 0.0
2017-Nov-03 07:25N 46°07' W 122°59'0 0.0
2017-Nov-03 06:58N 46°07' W 122°59'0 0.0
2017-Nov-03 06:26N 46°07' W 122°59'0 0.0
2017-Nov-03 05:59N 46°07' W 122°59'0 0.0
2017-Nov-03 05:29N 46°07' W 122°59'0 0.0
2017-Nov-03 04:56N 46°07' W 122°59'0 0.0
2017-Nov-03 04:29N 46°07' W 122°59'0 0.0
2017-Nov-03 03:53N 46°07' W 122°59'0 0.0
2017-Nov-03 03:26N 46°07' W 122°59'0 0.0
2017-Nov-03 02:56N 46°07' W 122°59'0 0.1
2017-Nov-03 02:26N 46°07' W 122°59'0 0.1
2017-Nov-03 01:56N 46°07' W 122°59'0 0.1
2017-Nov-03 01:29N 46°07' W 122°59'0 0.2
2017-Nov-03 00:59N 46°07' W 122°59'0 0.0
2017-Nov-03 00:29N 46°07' W 122°59'0 0.2
2017-Nov-02 23:56N 46°07' W 122°59'0 0.3
2017-Nov-02 23:23N 46°07' W 122°59'0 0.1
2017-Nov-02 22:59N 46°07' W 122°59'0 0.0
2017-Nov-02 22:29N 46°07' W 122°59'0 0.0
2017-Nov-02 21:56N 46°07' W 122°59'0 0.0
2017-Nov-02 21:29N 46°07' W 122°59'0 0.1
2017-Nov-02 20:56N 46°07' W 122°59'0 0.1
2017-Nov-02 20:20N 46°07' W 122°59'0 0.1
2017-Nov-02 19:56N 46°07' W 122°59'0 0.4
2017-Nov-02 19:26N 46°07' W 122°59'0 0.2
2017-Nov-02 18:53N 46°07' W 122°59'0 0.1
2017-Nov-02 18:29N 46°07' W 122°59'0 0.0
2017-Nov-02 17:59N 46°07' W 122°59'0 0.0
2017-Nov-02 17:23N 46°07' W 122°59'0 0.0
2017-Nov-02 16:56N 46°07' W 122°59'0 0.0
2017-Nov-02 16:29N 46°07' W 122°59'0 0.0
2017-Nov-02 15:59N 46°07' W 122°59'0 0.1
2017-Nov-02 15:29N 46°07' W 122°59'0 0.1
2017-Nov-02 14:59N 46°07' W 122°59'0 0.1
2017-Nov-02 14:29N 46°07' W 122°59'0 0.0
2017-Nov-02 13:59N 46°07' W 122°59'0 0.0
2017-Nov-02 13:26N 46°07' W 122°59'0 0.0
2017-Nov-02 12:59N 46°07' W 122°59'0 0.0
2017-Nov-02 12:29N 46°07' W 122°59'0 0.0
2017-Nov-02 11:59N 46°07' W 122°59'0 0.2
2017-Nov-02 11:26N 46°07' W 122°59'0 0.4
2017-Nov-02 10:59N 46°07' W 122°59'0 0.1
2017-Nov-02 10:29N 46°07' W 122°59'0 0.1
2017-Nov-02 09:59N 46°07' W 122°59'0 0.0
2017-Nov-02 09:29N 46°07' W 122°59'0 0.0
2017-Nov-02 08:59N 46°07' W 122°59'0 0.2
2017-Nov-02 08:11N 46°07' W 122°59'0 0.1
2017-Nov-02 07:59N 46°07' W 122°59'0 0.1
2017-Nov-02 07:29N 46°07' W 122°59'0 0.1
2017-Nov-02 06:59N 46°07' W 122°59'0 0.0
2017-Nov-02 06:29N 46°07' W 122°59'0 0.0
2017-Nov-02 05:53N 46°07' W 122°59'0 0.0
2017-Nov-02 05:29N 46°07' W 122°59'0 0.0
2017-Nov-02 04:59N 46°07' W 122°59'0 0.0
2017-Nov-02 04:29N 46°07' W 122°59'0 0.1
2017-Nov-02 03:59N 46°07' W 122°59'0 0.0
2017-Nov-02 03:29N 46°07' W 122°59'0 0.0
2017-Nov-02 02:53N 46°07' W 122°59'0 0.0
2017-Nov-02 02:29N 46°07' W 122°59'0 0.0
2017-Nov-02 01:56N 46°07' W 122°59'0 0.0
2017-Nov-02 01:29N 46°07' W 122°59'0 0.1
2017-Nov-02 00:56N 46°07' W 122°59'0 0.0
2017-Nov-02 00:29N 46°07' W 122°59'0 0.0
2017-Nov-01 23:53N 46°07' W 122°59'0 0.1
2017-Nov-01 23:29N 46°07' W 122°59'0 0.2
2017-Nov-01 22:56N 46°07' W 122°59'0 0.1
2017-Nov-01 22:26N 46°07' W 122°59'0 0.0
2017-Nov-01 21:59N 46°07' W 122°59'0 0.0
2017-Nov-01 21:29N 46°07' W 122°59'0 0.0
2017-Nov-01 20:59N 46°07' W 122°59'0 0.1
2017-Nov-01 20:29N 46°07' W 122°59'0 0.1
2017-Nov-01 19:59N 46°07' W 122°59'0 0.3
2017-Nov-01 19:29N 46°07' W 122°59'0 0.0
2017-Nov-01 18:59N 46°07' W 122°59'0 0.3
2017-Nov-01 18:26N 46°07' W 122°59'0 0.0
2017-Nov-01 01:53N 46°07' W 122°59'0 0.0
2017-Nov-01 01:29N 46°07' W 122°59'0 0.0
2017-Nov-01 00:56N 46°07' W 122°59'0 0.1
2017-Nov-01 00:29N 46°07' W 122°59'0 0.0
2017-Oct-31 23:59N 46°07' W 122°59'0 0.1
2017-Oct-31 23:29N 46°07' W 122°59'0 0.1
2017-Oct-31 22:59N 46°07' W 122°59'0 0.2
2017-Oct-31 22:26N 46°07' W 122°59'0 0.1
2017-Oct-31 21:56N 46°07' W 122°59'0 0.0
2017-Oct-31 21:29N 46°07' W 122°59'0 0.0
2017-Oct-31 20:53N 46°07' W 122°59'0 0.0
2017-Oct-31 20:29N 46°07' W 122°59'0 0.1
2017-Oct-31 19:59N 46°07' W 122°59'0 0.1
2017-Oct-31 19:17N 46°07' W 122°59'0 0.3
2017-Oct-31 18:47N 46°07' W 122°59'0 0.1
2017-Oct-31 18:29N 46°07' W 122°59'0 0.0
2017-Oct-31 17:53N 46°07' W 122°59'0 0.0
2017-Oct-31 17:23N 46°07' W 122°59'0 0.1
2017-Oct-31 16:53N 46°07' W 122°59'0 0.1
2017-Oct-31 16:29N 46°07' W 122°59'0 0.0
2017-Oct-31 15:59N 46°07' W 122°59'0 0.0
2017-Oct-31 15:26N 46°07' W 122°59'0 0.1
2017-Oct-31 14:59N 46°07' W 122°59'0 0.1
2017-Oct-31 14:29N 46°07' W 122°59'0 0.0
2017-Oct-31 13:50N 46°07' W 122°59'0 0.0
2017-Oct-31 13:29N 46°07' W 122°59'0 0.0
2017-Oct-31 12:59N 46°07' W 122°59'0 0.0
2017-Oct-31 12:29N 46°07' W 122°59'0 0.0
2017-Oct-31 11:59N 46°07' W 122°59'0 0.0
2017-Oct-31 11:26N 46°07' W 122°59'0 0.0
2017-Oct-31 10:59N 46°07' W 122°59'0 0.0
2017-Oct-31 10:29N 46°07' W 122°59'0 0.0
2017-Oct-31 09:59N 46°07' W 122°59'0 0.0
2017-Oct-31 09:29N 46°07' W 122°59'0 0.1
2017-Oct-31 08:59N 46°07' W 122°59'0 0.2
2017-Oct-31 08:26N 46°07' W 122°59'0 0.1
2017-Oct-31 07:35N 46°07' W 122°59'0 0.4
2017-Oct-31 07:29N 46°07' W 122°59'0 0.2
2017-Oct-31 06:59N 46°07' W 122°59'0 0.0
2017-Oct-31 06:29N 46°07' W 122°59'0 0.0
2017-Oct-31 05:44N 46°07' W 122°59'0 0.0
2017-Oct-31 05:29N 46°07' W 122°59'0 0.0
2017-Oct-31 04:56N 46°07' W 122°59'0 0.0
2017-Oct-31 04:29N 46°07' W 122°59'0 0.0
2017-Oct-31 03:59N 46°07' W 122°59'0 0.0
2017-Oct-31 03:29N 46°07' W 122°59'0 0.0
2017-Oct-31 02:56N 46°07' W 122°59'0 0.1
2017-Oct-31 02:29N 46°07' W 122°59'0 0.1
2017-Oct-31 01:59N 46°07' W 122°59'0 0.0
2017-Oct-31 01:26N 46°07' W 122°59'0 0.0
2017-Oct-31 00:59N 46°07' W 122°59'0 0.0
2017-Oct-31 00:29N 46°07' W 122°59'0 0.1
2017-Oct-30 23:59N 46°07' W 122°59'0 0.1
2017-Oct-30 23:29N 46°07' W 122°59'0 0.1
2017-Oct-30 22:59N 46°07' W 122°59'0 0.1
2017-Oct-30 22:20N 46°07' W 122°59'0 0.1
2017-Oct-30 21:59N 46°07' W 122°59'0 0.3
2017-Oct-30 21:29N 46°07' W 122°59'0 0.1
2017-Oct-30 20:59N 46°07' W 122°59'0 0.0
2017-Oct-30 20:29N 46°07' W 122°59'0 0.0
2017-Oct-30 19:59N 46°07' W 122°59'0 0.0
2017-Oct-30 19:29N 46°07' W 122°59'0 0.0
2017-Oct-30 18:56N 46°07' W 122°59'0 0.1
2017-Oct-30 18:29N 46°07' W 122°59'0 0.3
2017-Oct-30 17:59N 46°07' W 122°59'0 0.1
2017-Oct-30 17:29N 46°07' W 122°59'0 0.0
2017-Oct-30 16:59N 46°07' W 122°59'0 0.0
2017-Oct-30 16:29N 46°07' W 122°59'0 0.0
2017-Oct-30 15:59N 46°07' W 122°59'0 0.0
2017-Oct-30 15:23N 46°07' W 122°59'0 0.0
2017-Oct-30 14:59N 46°07' W 122°59'0 0.0
2017-Oct-30 13:53N 46°07' W 122°59'0 0.0
2017-Oct-30 13:26N 46°07' W 122°59'0 0.1
2017-Oct-30 12:59N 46°07' W 122°59'0 0.1
2017-Oct-30 12:29N 46°07' W 122°59'0 0.0
2017-Oct-30 11:59N 46°07' W 122°59'0 0.0
2017-Oct-30 11:29N 46°07' W 122°59'0 0.1
2017-Oct-30 10:59N 46°07' W 122°59'0 0.0
2017-Oct-30 10:29N 46°07' W 122°59'0 0.0
2017-Oct-30 09:59N 46°07' W 122°59'0 0.0
2017-Oct-30 09:29N 46°07' W 122°59'0 0.0
2017-Oct-30 08:59N 46°07' W 122°59'0 0.0
2017-Oct-30 08:26N 46°07' W 122°59'0 0.1
2017-Oct-30 07:50N 46°07' W 122°59'0 0.0
2017-Oct-30 07:29N 46°07' W 122°59'0 0.1
2017-Oct-30 06:53N 46°07' W 122°59'0 0.1
2017-Oct-30 06:29N 46°07' W 122°59'0 0.0
2017-Oct-30 05:59N 46°07' W 122°59'0 0.1
2017-Oct-30 05:20N 46°07' W 122°59'0 0.1
2017-Oct-30 04:56N 46°07' W 122°59'0 0.0
2017-Oct-30 04:11N 46°07' W 122°59'0 0.0
2017-Oct-30 03:53N 46°07' W 122°59'0 0.0
2017-Oct-30 03:29N 46°07' W 122°59'0 0.0
2017-Oct-30 02:44N 46°07' W 122°59'0 0.0
2017-Oct-30 02:26N 46°07' W 122°59'0 0.0
2017-Oct-30 01:47N 46°07' W 122°59'0 0.0
2017-Oct-30 01:23N 46°07' W 122°59'0 0.1
2017-Oct-30 00:47N 46°07' W 122°59'0 0.1
2017-Oct-30 00:29N 46°07' W 122°59'0 0.1
2017-Oct-29 23:59N 46°07' W 122°59'0 0.1
2017-Oct-29 23:29N 46°07' W 122°59'0 0.0
2017-Oct-29 22:53N 46°07' W 122°59'0 0.0
2017-Oct-29 22:29N 46°07' W 122°59'0 0.0
2017-Oct-29 21:59N 46°07' W 122°59'0 0.1
2017-Oct-29 21:29N 46°07' W 122°59'0 0.1
2017-Oct-29 20:59N 46°07' W 122°59'0 0.2
2017-Oct-29 20:29N 46°07' W 122°59'0 0.1
2017-Oct-29 19:59N 46°07' W 122°59'0 0.1
2017-Oct-29 19:11N 46°07' W 122°59'0 0.1
2017-Oct-29 18:59N 46°07' W 122°59'0 0.1
2017-Oct-29 18:29N 46°07' W 122°59'0 0.3
2017-Oct-29 17:56N 46°07' W 122°59'0 0.0
2017-Oct-29 17:29N 46°07' W 122°59'0 0.0
2017-Oct-29 16:59N 46°07' W 122°59'0 0.0
2017-Oct-29 16:29N 46°07' W 122°59'0 0.0
2017-Oct-29 15:56N 46°07' W 122°59'0 0.0
2017-Oct-29 15:29N 46°07' W 122°59'0 0.0
2017-Oct-29 14:59N 46°07' W 122°59'0 0.0
2017-Oct-29 14:26N 46°07' W 122°59'0 0.1
2017-Oct-29 13:56N 46°07' W 122°59'0 0.1
2017-Oct-29 13:26N 46°07' W 122°59'0 0.0
2017-Oct-29 12:50N 46°07' W 122°59'0 0.0
2017-Oct-29 12:29N 46°07' W 122°59'0 0.0
2017-Oct-29 11:59N 46°07' W 122°59'0 0.0
2017-Oct-29 11:29N 46°07' W 122°59'0 0.0
2017-Oct-29 10:59N 46°07' W 122°59'0 0.1
2017-Oct-29 10:29N 46°07' W 122°59'0 0.1
2017-Oct-29 09:59N 46°07' W 122°59'0 0.0
2017-Oct-29 09:29N 46°07' W 122°59'0 0.0
2017-Oct-29 08:56N 46°07' W 122°59'0 0.1
2017-Oct-29 08:20N 46°07' W 122°59'0 0.2
2017-Oct-29 07:59N 46°07' W 122°59'0 0.0
2017-Oct-29 07:29N 46°07' W 122°59'0 0.1
2017-Oct-29 06:50N 46°07' W 122°59'0 0.1
2017-Oct-29 06:29N 46°07' W 122°59'0 0.0
2017-Oct-29 05:59N 46°07' W 122°59'0 0.1
2017-Oct-29 05:29N 46°07' W 122°59'0 0.1
2017-Oct-29 04:59N 46°07' W 122°59'0 0.0
2017-Oct-29 04:29N 46°07' W 122°59'0 0.1
2017-Oct-29 03:59N 46°07' W 122°59'0 0.0
2017-Oct-28 18:59N 46°07' W 122°59'0 0.0
2017-Oct-28 18:29N 46°07' W 122°59'0 0.0
2017-Oct-28 17:56N 46°07' W 122°59'0 0.0
2017-Oct-28 17:26N 46°07' W 122°59'0 0.2
2017-Oct-28 16:47N 46°07' W 122°59'0 0.2
2017-Oct-28 16:26N 46°07' W 122°59'0 0.1
2017-Oct-28 15:59N 46°07' W 122°59'0 0.0
2017-Oct-28 14:47N 46°07' W 122°59'0 0.1
2017-Oct-28 14:29N 46°07' W 122°59'0 0.0
2017-Oct-28 13:59N 46°07' W 122°59'0 0.0
2017-Oct-28 13:29N 46°07' W 122°59'  
Track history (hours):
 
Tides and Currents Weather Stations Pressure Air Temp Water Temp Dewpoint Dewpoint Depression Visibility Wind Speed Wind Dir Waves Ship Positions

Timaru Star

Last reported at 2017-Nov-07 13:18 UTC. Time now 2017-Nov-18 01:12 UTC.
Position N 46°12' W 125°32'.
Warning: this ship's position is 10 days out of date.

Length 175 m; draft 6.2 m.

Type: Cargo ship. MMSI: 367002208.

Date/timePositionNaut miles runAvg speedWind from/ knotsBaromVisibWave heightAir tempDewpointWater temp
2017-Nov-07 13:18N 46°12' W 125°32'412.3
2017-Nov-07 13:00N 46°12' W 125°27'612.4
2017-Nov-07 12:30N 46°12' W 125°18'612.4
2017-Nov-07 12:00N 46°12' W 125°09'712.4
2017-Nov-07 11:28N 46°12' W 124°59'612.5
2017-Nov-07 11:00N 46°12' W 124°51'612.6
2017-Nov-07 10:30N 46°12' W 124°42'812.9
2017-Nov-07 09:54N 46°12' W 124°31'513.0
2017-Nov-07 09:30N 46°12' W 124°24'612.5
2017-Nov-07 09:00N 46°12' W 124°15'510.9
2017-Nov-07 08:30N 46°14' W 124°07'4 8.1
2017-Nov-07 08:00N 46°15' W 124°01'5 9.4
2017-Nov-07 07:30N 46°12' W 123°56'4 9.0
2017-Nov-07 07:00N 46°12' W 123°50'5 9.6
2017-Nov-07 06:30N 46°14' W 123°44'612.5
2017-Nov-07 06:00N 46°15' W 123°35'611.8
2017-Nov-07 05:30N 46°15' W 123°26'612.0
2017-Nov-07 05:00N 46°09' W 123°24'612.0
2017-Nov-07 04:30N 46°09' W 123°15'612.2
2017-Nov-07 04:00N 46°11' W 123°06'8 2.2
2017-Nov-07 00:26N 46°06' W 122°57'0 0.0
2017-Nov-06 23:56N 46°06' W 122°57'0 0.0
2017-Nov-06 23:29N 46°06' W 122°57'0 0.0
2017-Nov-06 22:56N 46°06' W 122°57'0 0.0
2017-Nov-06 22:29N 46°06' W 122°57'0 0.0
2017-Nov-06 21:59N 46°06' W 122°57'0 0.0
2017-Nov-06 21:29N 46°06' W 122°57'0 0.0
2017-Nov-06 20:59N 46°06' W 122°57'0 0.0
2017-Nov-06 20:14N 46°06' W 122°57'0 0.0
2017-Nov-06 02:21N 46°06' W 122°57'0 0.0
2017-Nov-06 02:00N 46°06' W 122°57'0 0.0
2017-Nov-06 01:29N 46°06' W 122°57'0 0.0
2017-Nov-06 00:59N 46°06' W 122°57'0 0.0
2017-Nov-06 00:24N 46°06' W 122°57'0 0.0
2017-Nov-05 23:57N 46°06' W 122°57'0 0.2
2017-Nov-05 23:30N 46°06' W 122°57'0 1.0
2017-Nov-05 23:01N 46°06' W 122°58'1 2.1
2017-Nov-05 22:28N 46°07' W 122°59'0 0.0
2017-Nov-05 21:58N 46°07' W 122°59'0 0.1
2017-Nov-05 21:25N 46°07' W 122°59'0 0.5
2017-Nov-05 20:58N 46°07' W 122°59'0 0.1
2017-Nov-05 20:16N 46°07' W 122°59'0 0.0
2017-Nov-05 19:58N 46°07' W 122°59'0 0.0
2017-Nov-05 19:28N 46°07' W 122°59'0 0.0
2017-Nov-05 18:58N 46°07' W 122°59'0 0.0
2017-Nov-05 18:28N 46°07' W 122°59'0 0.0
2017-Nov-05 17:55N 46°07' W 122°59'0 0.0
2017-Nov-05 17:28N 46°07' W 122°59'0 0.0
2017-Nov-05 16:58N 46°07' W 122°59'0 0.0
2017-Nov-05 16:28N 46°07' W 122°59'0 0.0
2017-Nov-05 15:58N 46°07' W 122°59'0 0.0
2017-Nov-05 15:25N 46°07' W 122°59'0 0.0
2017-Nov-05 14:49N 46°07' W 122°59'0 0.0
2017-Nov-05 14:28N 46°07' W 122°59'0 0.0
2017-Nov-05 13:55N 46°07' W 122°59'0 0.0
2017-Nov-05 13:28N 46°07' W 122°59'0 0.2
2017-Nov-05 12:40N 46°07' W 122°59'0 0.1
2017-Nov-05 12:28N 46°07' W 122°59'0 0.0
2017-Nov-05 11:46N 46°07' W 122°59'0 0.1
2017-Nov-05 11:28N 46°07' W 122°59'0 0.1
2017-Nov-05 10:55N 46°07' W 122°59'0 0.2
2017-Nov-05 10:22N 46°07' W 122°59'0 0.0
2017-Nov-05 09:58N 46°07' W 122°59'0 0.1
2017-Nov-05 09:28N 46°07' W 122°59'0 0.0
2017-Nov-05 08:58N 46°07' W 122°59'0 0.0
2017-Nov-05 08:28N 46°07' W 122°59'0 0.0
2017-Nov-05 07:58N 46°07' W 122°59'0 0.0
2017-Nov-05 06:34N 46°07' W 122°59'0 0.1
2017-Nov-05 06:28N 46°07' W 122°59'0 0.0
2017-Nov-05 05:58N 46°07' W 122°59'0 0.0
2017-Nov-05 05:25N 46°07' W 122°59'0 0.0
2017-Nov-05 04:58N 46°07' W 122°59'0 0.0
2017-Nov-05 04:28N 46°07' W 122°59'0 0.0
2017-Nov-05 03:55N 46°07' W 122°59'0 0.0
2017-Nov-05 03:28N 46°07' W 122°59'0 0.0
2017-Nov-05 02:58N 46°07' W 122°59'0 0.0
2017-Nov-05 02:28N 46°07' W 122°59'0 0.0
2017-Nov-05 01:55N 46°07' W 122°59'0 0.0
2017-Nov-05 01:25N 46°07' W 122°59'0 0.0
2017-Nov-05 00:58N 46°07' W 122°59'0 0.2
2017-Nov-05 00:25N 46°07' W 122°59'0 0.2
2017-Nov-04 23:58N 46°07' W 122°59'0 0.0
2017-Nov-04 23:22N 46°07' W 122°59'0 0.0
2017-Nov-04 22:55N 46°07' W 122°59'0 0.0
2017-Nov-04 22:28N 46°07' W 122°59'0 0.3
2017-Nov-04 21:58N 46°07' W 122°59'0 0.2
2017-Nov-04 21:19N 46°07' W 122°59'0 0.1
2017-Nov-04 20:58N 46°07' W 122°59'0 0.0
2017-Nov-04 20:28N 46°07' W 122°59'0 0.0
2017-Nov-04 19:58N 46°07' W 122°59'0 0.0
2017-Nov-04 19:19N 46°07' W 122°59'0 0.0
2017-Nov-04 18:55N 46°07' W 122°59'0 0.0
2017-Nov-04 18:10N 46°07' W 122°59'0 0.1
2017-Nov-04 17:58N 46°07' W 122°59'0 0.0
2017-Nov-04 17:16N 46°07' W 122°59'0 0.0
2017-Nov-04 16:58N 46°07' W 122°59'0 0.0
2017-Nov-04 16:22N 46°07' W 122°59'0 0.0
2017-Nov-04 15:58N 46°07' W 122°59'0 0.0
2017-Nov-04 15:25N 46°07' W 122°59'0 0.0
2017-Nov-04 14:58N 46°07' W 122°59'0 0.0
2017-Nov-04 14:28N 46°07' W 122°59'0 0.0
2017-Nov-04 13:58N 46°07' W 122°59'0 0.0
2017-Nov-04 13:28N 46°07' W 122°59'0 0.1
2017-Nov-04 12:58N 46°07' W 122°59'0 0.2
2017-Nov-04 12:28N 46°07' W 122°59'0 0.1
2017-Nov-04 11:55N 46°07' W 122°59'0 0.1
2017-Nov-04 11:25N 46°07' W 122°59'0 0.1
2017-Nov-04 10:55N 46°07' W 122°59'0 0.3
2017-Nov-04 10:25N 46°07' W 122°59'0 0.1
2017-Nov-04 09:49N 46°07' W 122°59'0 0.0
2017-Nov-04 09:25N 46°07' W 122°59'0 0.1
2017-Nov-04 08:58N 46°07' W 122°59'0 0.0
2017-Nov-04 08:25N 46°07' W 122°59'0 0.0
2017-Nov-04 07:58N 46°07' W 122°59'0 0.0
2017-Nov-04 07:28N 46°07' W 122°59'0 0.0
2017-Nov-04 06:58N 46°07' W 122°59'0 0.0
2017-Nov-04 06:28N 46°07' W 122°59'0 0.0
2017-Nov-04 05:58N 46°07' W 122°59'0 0.0
2017-Nov-04 05:28N 46°07' W 122°59'0 0.0
2017-Nov-04 04:52N 46°07' W 122°59'0 0.0
2017-Nov-04 04:25N 46°07' W 122°59'0 0.0
2017-Nov-04 03:58N 46°07' W 122°59'0 0.0
2017-Nov-04 03:10N 46°07' W 122°59'0 0.0
2017-Nov-04 02:49N 46°07' W 122°59'0 0.0
2017-Nov-04 02:28N 46°07' W 122°59'0 0.0
2017-Nov-04 01:49N 46°07' W 122°59'0 0.1
2017-Nov-04 01:28N 46°07' W 122°59'0 0.0
2017-Nov-04 00:58N 46°07' W 122°59'0 0.2
2017-Nov-04 00:13N 46°07' W 122°59'0 0.2
2017-Nov-03 23:52N 46°07' W 122°59'0 0.1
2017-Nov-03 23:19N 46°07' W 122°59'0 0.0
2017-Nov-03 22:58N 46°07' W 122°59'0 0.0
2017-Nov-03 22:25N 46°07' W 122°59'0 0.0
2017-Nov-03 21:52N 46°07' W 122°59'0 0.0
2017-Nov-03 21:28N 46°07' W 122°59'0 0.1
2017-Nov-03 20:58N 46°07' W 122°59'0 0.3
2017-Nov-03 20:28N 46°07' W 122°59'0 0.0
2017-Nov-03 19:58N 46°07' W 122°59'0 0.0
2017-Nov-03 19:22N 46°07' W 122°59'0 0.0
2017-Nov-03 18:46N 46°07' W 122°59'0 0.0
2017-Nov-03 18:19N 46°07' W 122°59'0 0.0
2017-Nov-03 17:43N 46°07' W 122°59'0 0.0
2017-Nov-03 17:04N 46°07' W 122°59'0 0.1
2017-Nov-03 16:58N 46°07' W 122°59'0 0.0
2017-Nov-03 16:28N 46°07' W 122°59'0 0.0
2017-Nov-03 15:58N 46°07' W 122°59'0 0.1
2017-Nov-03 15:19N 46°07' W 122°59'0 0.1
2017-Nov-03 14:58N 46°07' W 122°59'0 0.0
2017-Nov-03 14:28N 46°07' W 122°59'0 0.0
2017-Nov-03 13:58N 46°07' W 122°59'0 0.0
2017-Nov-03 13:25N 46°07' W 122°59'0 0.0
2017-Nov-03 12:55N 46°07' W 122°59'0 0.0
2017-Nov-03 12:25N 46°07' W 122°59'0 0.1
2017-Nov-03 11:58N 46°07' W 122°59'0 0.2
2017-Nov-03 11:28N 46°07' W 122°59'0 0.2
2017-Nov-03 10:58N 46°07' W 122°59'0 0.0
2017-Nov-03 10:25N 46°07' W 122°59'0 0.1
2017-Nov-03 09:55N 46°07' W 122°59'0 0.4
2017-Nov-03 09:25N 46°07' W 122°59'0 0.1
2017-Nov-03 08:55N 46°07' W 122°59'0 0.1
2017-Nov-03 08:28N 46°07' W 122°59'0 0.1
2017-Nov-03 07:58N 46°07' W 122°59'0 0.0
2017-Nov-03 07:25N 46°07' W 122°59'0 0.0
2017-Nov-03 06:58N 46°07' W 122°59'0 0.0
2017-Nov-03 06:26N 46°07' W 122°59'0 0.0
2017-Nov-03 05:59N 46°07' W 122°59'0 0.0
2017-Nov-03 05:29N 46°07' W 122°59'0 0.0
2017-Nov-03 04:56N 46°07' W 122°59'0 0.0
2017-Nov-03 04:29N 46°07' W 122°59'0 0.0
2017-Nov-03 03:53N 46°07' W 122°59'0 0.0
2017-Nov-03 03:26N 46°07' W 122°59'0 0.0
2017-Nov-03 02:56N 46°07' W 122°59'0 0.1
2017-Nov-03 02:26N 46°07' W 122°59'0 0.1
2017-Nov-03 01:56N 46°07' W 122°59'0 0.1
2017-Nov-03 01:29N 46°07' W 122°59'0 0.2
2017-Nov-03 00:59N 46°07' W 122°59'0 0.0
2017-Nov-03 00:29N 46°07' W 122°59'0 0.2
2017-Nov-02 23:56N 46°07' W 122°59'0 0.3
2017-Nov-02 23:23N 46°07' W 122°59'0 0.1
2017-Nov-02 22:59N 46°07' W 122°59'0 0.0
2017-Nov-02 22:29N 46°07' W 122°59'0 0.0
2017-Nov-02 21:56N 46°07' W 122°59'0 0.0
2017-Nov-02 21:29N 46°07' W 122°59'0 0.1
2017-Nov-02 20:56N 46°07' W 122°59'0 0.1
2017-Nov-02 20:20N 46°07' W 122°59'0 0.1
2017-Nov-02 19:56N 46°07' W 122°59'0 0.4
2017-Nov-02 19:26N 46°07' W 122°59'0 0.2
2017-Nov-02 18:53N 46°07' W 122°59'0 0.1
2017-Nov-02 18:29N 46°07' W 122°59'0 0.0
2017-Nov-02 17:59N 46°07' W 122°59'0 0.0
2017-Nov-02 17:23N 46°07' W 122°59'0 0.0
2017-Nov-02 16:56N 46°07' W 122°59'0 0.0
2017-Nov-02 16:29N 46°07' W 122°59'0 0.0
2017-Nov-02 15:59N 46°07' W 122°59'0 0.1
2017-Nov-02 15:29N 46°07' W 122°59'0 0.1
2017-Nov-02 14:59N 46°07' W 122°59'0 0.1
2017-Nov-02 14:29N 46°07' W 122°59'0 0.0
2017-Nov-02 13:59N 46°07' W 122°59'0 0.0
2017-Nov-02 13:26N 46°07' W 122°59'0 0.0
2017-Nov-02 12:59N 46°07' W 122°59'0 0.0
2017-Nov-02 12:29N 46°07' W 122°59'0 0.0
2017-Nov-02 11:59N 46°07' W 122°59'0 0.2
2017-Nov-02 11:26N 46°07' W 122°59'0 0.4
2017-Nov-02 10:59N 46°07' W 122°59'0 0.1
2017-Nov-02 10:29N 46°07' W 122°59'0 0.1
2017-Nov-02 09:59N 46°07' W 122°59'0 0.0
2017-Nov-02 09:29N 46°07' W 122°59'0 0.0
2017-Nov-02 08:59N 46°07' W 122°59'0 0.2
2017-Nov-02 08:11N 46°07' W 122°59'0 0.1
2017-Nov-02 07:59N 46°07' W 122°59'0 0.1
2017-Nov-02 07:29N 46°07' W 122°59'0 0.1
2017-Nov-02 06:59N 46°07' W 122°59'0 0.0
2017-Nov-02 06:29N 46°07' W 122°59'0 0.0
2017-Nov-02 05:53N 46°07' W 122°59'0 0.0
2017-Nov-02 05:29N 46°07' W 122°59'0 0.0
2017-Nov-02 04:59N 46°07' W 122°59'0 0.0
2017-Nov-02 04:29N 46°07' W 122°59'0 0.1
2017-Nov-02 03:59N 46°07' W 122°59'0 0.0
2017-Nov-02 03:29N 46°07' W 122°59'0 0.0
2017-Nov-02 02:53N 46°07' W 122°59'0 0.0
2017-Nov-02 02:29N 46°07' W 122°59'0 0.0
2017-Nov-02 01:56N 46°07' W 122°59'0 0.0
2017-Nov-02 01:29N 46°07' W 122°59'0 0.1
2017-Nov-02 00:56N 46°07' W 122°59'0 0.0
2017-Nov-02 00:29N 46°07' W 122°59'0 0.0
2017-Nov-01 23:53N 46°07' W 122°59'0 0.1
2017-Nov-01 23:29N 46°07' W 122°59'0 0.2
2017-Nov-01 22:56N 46°07' W 122°59'0 0.1
2017-Nov-01 22:26N 46°07' W 122°59'0 0.0
2017-Nov-01 21:59N 46°07' W 122°59'0 0.0
2017-Nov-01 21:29N 46°07' W 122°59'0 0.0
2017-Nov-01 20:59N 46°07' W 122°59'0 0.1
2017-Nov-01 20:29N 46°07' W 122°59'0 0.1
2017-Nov-01 19:59N 46°07' W 122°59'0 0.3
2017-Nov-01 19:29N 46°07' W 122°59'0 0.0
2017-Nov-01 18:59N 46°07' W 122°59'0 0.3
2017-Nov-01 18:26N 46°07' W 122°59'0 0.0
2017-Nov-01 01:53N 46°07' W 122°59'0 0.0
2017-Nov-01 01:29N 46°07' W 122°59'0 0.0
2017-Nov-01 00:56N 46°07' W 122°59'0 0.1
2017-Nov-01 00:29N 46°07' W 122°59'0 0.0
2017-Oct-31 23:59N 46°07' W 122°59'0 0.1
2017-Oct-31 23:29N 46°07' W 122°59'0 0.1
2017-Oct-31 22:59N 46°07' W 122°59'0 0.2
2017-Oct-31 22:26N 46°07' W 122°59'0 0.1
2017-Oct-31 21:56N 46°07' W 122°59'0 0.0
2017-Oct-31 21:29N 46°07' W 122°59'0 0.0
2017-Oct-31 20:53N 46°07' W 122°59'0 0.0
2017-Oct-31 20:29N 46°07' W 122°59'0 0.1
2017-Oct-31 19:59N 46°07' W 122°59'0 0.1
2017-Oct-31 19:17N 46°07' W 122°59'0 0.3
2017-Oct-31 18:47N 46°07' W 122°59'0 0.1
2017-Oct-31 18:29N 46°07' W 122°59'0 0.0
2017-Oct-31 17:53N 46°07' W 122°59'0 0.0
2017-Oct-31 17:23N 46°07' W 122°59'0 0.1
2017-Oct-31 16:53N 46°07' W 122°59'0 0.1
2017-Oct-31 16:29N 46°07' W 122°59'0 0.0
2017-Oct-31 15:59N 46°07' W 122°59'0 0.0
2017-Oct-31 15:26N 46°07' W 122°59'0 0.1
2017-Oct-31 14:59N 46°07' W 122°59'0 0.1
2017-Oct-31 14:29N 46°07' W 122°59'0 0.0
2017-Oct-31 13:50N 46°07' W 122°59'0 0.0
2017-Oct-31 13:29N 46°07' W 122°59'0 0.0
2017-Oct-31 12:59N 46°07' W 122°59'0 0.0
2017-Oct-31 12:29N 46°07' W 122°59'0 0.0
2017-Oct-31 11:59N 46°07' W 122°59'0 0.0
2017-Oct-31 11:26N 46°07' W 122°59'0 0.0
2017-Oct-31 10:59N 46°07' W 122°59'0 0.0
2017-Oct-31 10:29N 46°07' W 122°59'0 0.0
2017-Oct-31 09:59N 46°07' W 122°59'0 0.0
2017-Oct-31 09:29N 46°07' W 122°59'0 0.1
2017-Oct-31 08:59N 46°07' W 122°59'0 0.2
2017-Oct-31 08:26N 46°07' W 122°59'0 0.1
2017-Oct-31 07:35N 46°07' W 122°59'0 0.4
2017-Oct-31 07:29N 46°07' W 122°59'0 0.2
2017-Oct-31 06:59N 46°07' W 122°59'0 0.0
2017-Oct-31 06:29N 46°07' W 122°59'0 0.0
2017-Oct-31 05:44N 46°07' W 122°59'0 0.0
2017-Oct-31 05:29N 46°07' W 122°59'0 0.0
2017-Oct-31 04:56N 46°07' W 122°59'0 0.0
2017-Oct-31 04:29N 46°07' W 122°59'0 0.0
2017-Oct-31 03:59N 46°07' W 122°59'0 0.0
2017-Oct-31 03:29N 46°07' W 122°59'0 0.0
2017-Oct-31 02:56N 46°07' W 122°59'0 0.1
2017-Oct-31 02:29N 46°07' W 122°59'0 0.1
2017-Oct-31 01:59N 46°07' W 122°59'0 0.0
2017-Oct-31 01:26N 46°07' W 122°59'0 0.0
2017-Oct-31 00:59N 46°07' W 122°59'0 0.0
2017-Oct-31 00:29N 46°07' W 122°59'0 0.1
2017-Oct-30 23:59N 46°07' W 122°59'0 0.1
2017-Oct-30 23:29N 46°07' W 122°59'0 0.1
2017-Oct-30 22:59N 46°07' W 122°59'0 0.1
2017-Oct-30 22:20N 46°07' W 122°59'0 0.1
2017-Oct-30 21:59N 46°07' W 122°59'0 0.3
2017-Oct-30 21:29N 46°07' W 122°59'0 0.1
2017-Oct-30 20:59N 46°07' W 122°59'0 0.0
2017-Oct-30 20:29N 46°07' W 122°59'0 0.0
2017-Oct-30 19:59N 46°07' W 122°59'0 0.0
2017-Oct-30 19:29N 46°07' W 122°59'0 0.0
2017-Oct-30 18:56N 46°07' W 122°59'0 0.1
2017-Oct-30 18:29N 46°07' W 122°59'0 0.3
2017-Oct-30 17:59N 46°07' W 122°59'0 0.1
2017-Oct-30 17:29N 46°07' W 122°59'0 0.0
2017-Oct-30 16:59N 46°07' W 122°59'0 0.0
2017-Oct-30 16:29N 46°07' W 122°59'0 0.0
2017-Oct-30 15:59N 46°07' W 122°59'0 0.0
2017-Oct-30 15:23N 46°07' W 122°59'0 0.0
2017-Oct-30 14:59N 46°07' W 122°59'0 0.0
2017-Oct-30 13:53N 46°07' W 122°59'0 0.0
2017-Oct-30 13:26N 46°07' W 122°59'0 0.1
2017-Oct-30 12:59N 46°07' W 122°59'0 0.1
2017-Oct-30 12:29N 46°07' W 122°59'0 0.0
2017-Oct-30 11:59N 46°07' W 122°59'0 0.0
2017-Oct-30 11:29N 46°07' W 122°59'0 0.1
2017-Oct-30 10:59N 46°07' W 122°59'0 0.0
2017-Oct-30 10:29N 46°07' W 122°59'0 0.0
2017-Oct-30 09:59N 46°07' W 122°59'0 0.0
2017-Oct-30 09:29N 46°07' W 122°59'0 0.0
2017-Oct-30 08:59N 46°07' W 122°59'0 0.0
2017-Oct-30 08:26N 46°07' W 122°59'0 0.1
2017-Oct-30 07:50N 46°07' W 122°59'0 0.0
2017-Oct-30 07:29N 46°07' W 122°59'0 0.1
2017-Oct-30 06:53N 46°07' W 122°59'0 0.1
2017-Oct-30 06:29N 46°07' W 122°59'0 0.0
2017-Oct-30 05:59N 46°07' W 122°59'0 0.1
2017-Oct-30 05:20N 46°07' W 122°59'0 0.1
2017-Oct-30 04:56N 46°07' W 122°59'0 0.0
2017-Oct-30 04:11N 46°07' W 122°59'0 0.0
2017-Oct-30 03:53N 46°07' W 122°59'0 0.0
2017-Oct-30 03:29N 46°07' W 122°59'0 0.0
2017-Oct-30 02:44N 46°07' W 122°59'0 0.0
2017-Oct-30 02:26N 46°07' W 122°59'0 0.0
2017-Oct-30 01:47N 46°07' W 122°59'0 0.0
2017-Oct-30 01:23N 46°07' W 122°59'0 0.1
2017-Oct-30 00:47N 46°07' W 122°59'0 0.1
2017-Oct-30 00:29N 46°07' W 122°59'0 0.1
2017-Oct-29 23:59N 46°07' W 122°59'0 0.1
2017-Oct-29 23:29N 46°07' W 122°59'0 0.0
2017-Oct-29 22:53N 46°07' W 122°59'0 0.0
2017-Oct-29 22:29N 46°07' W 122°59'0 0.0
2017-Oct-29 21:59N 46°07' W 122°59'0 0.1
2017-Oct-29 21:29N 46°07' W 122°59'0 0.1
2017-Oct-29 20:59N 46°07' W 122°59'0 0.2
2017-Oct-29 20:29N 46°07' W 122°59'0 0.1
2017-Oct-29 19:59N 46°07' W 122°59'0 0.1
2017-Oct-29 19:11N 46°07' W 122°59'0 0.1
2017-Oct-29 18:59N 46°07' W 122°59'0 0.1
2017-Oct-29 18:29N 46°07' W 122°59'0 0.3
2017-Oct-29 17:56N 46°07' W 122°59'0 0.0
2017-Oct-29 17:29N 46°07' W 122°59'0 0.0
2017-Oct-29 16:59N 46°07' W 122°59'0 0.0
2017-Oct-29 16:29N 46°07' W 122°59'0 0.0
2017-Oct-29 15:56N 46°07' W 122°59'0 0.0
2017-Oct-29 15:29N 46°07' W 122°59'0 0.0
2017-Oct-29 14:59N 46°07' W 122°59'0 0.0
2017-Oct-29 14:26N 46°07' W 122°59'0 0.1
2017-Oct-29 13:56N 46°07' W 122°59'0 0.1
2017-Oct-29 13:26N 46°07' W 122°59'0 0.0
2017-Oct-29 12:50N 46°07' W 122°59'0 0.0
2017-Oct-29 12:29N 46°07' W 122°59'0 0.0
2017-Oct-29 11:59N 46°07' W 122°59'0 0.0
2017-Oct-29 11:29N 46°07' W 122°59'0 0.0
2017-Oct-29 10:59N 46°07' W 122°59'0 0.1
2017-Oct-29 10:29N 46°07' W 122°59'0 0.1
2017-Oct-29 09:59N 46°07' W 122°59'0 0.0
2017-Oct-29 09:29N 46°07' W 122°59'0 0.0
2017-Oct-29 08:56N 46°07' W 122°59'0 0.1
2017-Oct-29 08:20N 46°07' W 122°59'0 0.2
2017-Oct-29 07:59N 46°07' W 122°59'0 0.0
2017-Oct-29 07:29N 46°07' W 122°59'0 0.1
2017-Oct-29 06:50N 46°07' W 122°59'0 0.1
2017-Oct-29 06:29N 46°07' W 122°59'0 0.0
2017-Oct-29 05:59N 46°07' W 122°59'0 0.1
2017-Oct-29 05:29N 46°07' W 122°59'0 0.1
2017-Oct-29 04:59N 46°07' W 122°59'0 0.0
2017-Oct-29 04:29N 46°07' W 122°59'0 0.1
2017-Oct-29 03:59N 46°07' W 122°59'0 0.0
2017-Oct-28 18:59N 46°07' W 122°59'0 0.0
2017-Oct-28 18:29N 46°07' W 122°59'0 0.0
2017-Oct-28 17:56N 46°07' W 122°59'0 0.0
2017-Oct-28 17:26N 46°07' W 122°59'0 0.2
2017-Oct-28 16:47N 46°07' W 122°59'0 0.2
2017-Oct-28 16:26N 46°07' W 122°59'0 0.1
2017-Oct-28 15:59N 46°07' W 122°59'0 0.0
2017-Oct-28 14:47N 46°07' W 122°59'0 0.1
2017-Oct-28 14:29N 46°07' W 122°59'0 0.0
2017-Oct-28 13:59N 46°07' W 122°59'0 0.0
2017-Oct-28 13:29N 46°07' W 122°59'  

Dump ship's entire track history